Time;durP1;ratioP1;P1;durP2;ratioP2;P2;SDS_P1;SDS_P2;PMS_P1;PMS_P2;Temp;Humidity;BMP_temperature;BMP_pressure;BME280_temperature;BME280_humidity;BME280_pressure;Samples;Min_cycle;Max_cycle;Signal;HPM_P1;HPM_P2
2021/09/04 00:01:29;;;;;;;12.70;8.98;;;;;;;14.22;79.46;99787.13;5070693;28;20040;-72
2021/09/04 00:03:54;;;;;;;11.82;8.90;;;;;;;14.22;79.32;99782.66;5071581;28;20047;-72
2021/09/04 00:06:20;;;;;;;16.52;9.88;;;;;;;14.25;79.09;99784.25;5071249;28;20032;-72
2021/09/04 00:08:45;;;;;;;13.85;9.07;;;;;;;14.18;79.60;99775.88;5069082;28;20113;-71
2021/09/04 00:11:11;;;;;;;13.85;9.73;;;;;;;14.18;79.42;99781.16;5070410;28;20181;-70
2021/09/04 00:13:37;;;;;;;17.52;10.50;;;;;;;14.14;79.42;99775.19;5069384;28;20029;-70
2021/09/04 00:16:03;;;;;;;15.00;12.35;;;;;;;14.05;79.33;99775.78;5071926;28;20033;-71
2021/09/04 00:18:30;;;;;;;12.48;9.98;;;;;;;13.96;79.43;99771.94;5072338;28;20083;-71
2021/09/04 00:20:56;;;;;;;13.60;10.43;;;;;;;13.87;79.89;99767.22;5072193;28;20064;-71
2021/09/04 00:23:22;;;;;;;11.95;9.20;;;;;;;13.87;80.29;99769.84;5071427;28;20039;-71
2021/09/04 00:25:47;;;;;;;10.60;8.45;;;;;;;13.88;80.06;99765.41;5071924;28;20036;-71
2021/09/04 00:28:13;;;;;;;15.20;10.35;;;;;;;13.83;80.16;99765.72;5071772;28;20040;-73
2021/09/04 00:30:38;;;;;;;17.33;11.93;;;;;;;13.81;79.93;99772.03;5071614;28;20035;-71
2021/09/04 00:33:04;;;;;;;20.60;12.13;;;;;;;13.75;80.62;99763.53;5070635;28;20063;-71
2021/09/04 00:35:29;;;;;;;21.80;10.32;;;;;;;13.72;80.88;99763.72;5071281;28;20068;-71
2021/09/04 00:37:54;;;;;;;16.38;10.85;;;;;;;13.70;80.67;99762.97;5071560;28;20032;-71
2021/09/04 00:40:20;;;;;;;20.95;10.68;;;;;;;13.71;81.31;99762.03;5070894;28;20037;-71
2021/09/04 00:42:45;;;;;;;17.83;10.65;;;;;;;13.71;80.96;99759.38;5070093;28;20036;-71
2021/09/04 00:45:11;;;;;;;17.08;11.25;;;;;;;13.72;81.09;99752.28;5068888;28;20037;-71
2021/09/04 00:47:57;;;;;;;19.30;13.02;;;;;;;13.70;81.07;99748.88;5070751;28;20033;-71
2021/09/04 00:50:22;;;;;;;14.85;10.45;;;;;;;13.68;80.68;99759.59;5071164;28;20111;-72
2021/09/04 00:52:48;;;;;;;14.73;10.43;;;;;;;13.67;81.07;99754.38;5068953;28;20426;-71
2021/09/04 00:55:13;;;;;;;19.52;12.40;;;;;;;13.67;80.73;99752.56;5070719;28;20028;-70
2021/09/04 00:57:39;;;;;;;18.02;11.65;;;;;;;13.66;80.87;99750.00;5070538;28;20660;-70
2021/09/04 01:00:04;;;;;;;17.48;11.40;;;;;;;13.61;80.52;99746.78;5070616;28;20036;-70
2021/09/04 01:02:30;;;;;;;14.98;11.52;;;;;;;13.60;80.76;99747.75;5036758;28;20033;-70
2021/09/04 01:04:55;;;;;;;15.05;11.13;;;;;;;13.59;80.71;99746.91;5070776;28;20056;-70
2021/09/04 01:07:22;;;;;;;18.70;12.43;;;;;;;13.60;80.46;99751.25;5069799;28;20032;-70
2021/09/04 01:09:48;;;;;;;13.30;11.13;;;;;;;13.55;81.34;99747.19;5070536;28;20036;-71
2021/09/04 01:12:13;;;;;;;15.23;10.05;;;;;;;13.59;80.88;99751.34;5069108;28;20033;-72
2021/09/04 01:14:39;;;;;;;21.80;12.35;;;;;;;13.59;80.75;99748.72;5070431;28;20470;-71
2021/09/04 01:17:05;;;;;;;15.82;11.32;;;;;;;13.56;80.88;99749.75;5070844;28;20036;-72
2021/09/04 01:19:31;;;;;;;13.88;9.50;;;;;;;13.56;80.89;99746.22;5070275;28;20599;-71
2021/09/04 01:21:57;;;;;;;13.35;10.73;;;;;;;13.55;81.07;99745.38;5069477;28;20485;-71
2021/09/04 01:24:23;;;;;;;15.05;11.68;;;;;;;13.55;81.31;99744.53;5070438;28;20024;-70
2021/09/04 01:26:49;;;;;;;19.33;13.15;;;;;;;13.55;80.56;99745.38;5069684;28;20127;-71
2021/09/04 01:29:15;;;;;;;13.77;11.00;;;;;;;13.53;80.91;99744.63;5070128;28;20051;-71
2021/09/04 01:31:40;;;;;;;22.10;13.95;;;;;;;13.47;80.89;99737.91;5068130;28;20442;-71
2021/09/04 01:34:06;;;;;;;17.35;14.02;;;;;;;13.48;81.25;99747.53;5069657;28;20107;-71
2021/09/04 01:36:33;;;;;;;20.13;13.45;;;;;;;13.49;81.11;99743.13;5070534;28;20048;-71
2021/09/04 01:38:59;;;;;;;22.63;14.13;;;;;;;13.48;80.64;99741.41;5070044;28;20092;-71
2021/09/04 01:41:25;;;;;;;17.15;13.45;;;;;;;13.40;80.27;99738.38;5069249;28;20070;-72
2021/09/04 01:43:51;;;;;;;16.85;13.38;;;;;;;13.32;81.14;99739.72;5068027;28;20033;-71
2021/09/04 01:46:16;;;;;;;21.90;12.70;;;;;;;13.30;80.80;99741.59;5070038;28;20401;-71
2021/09/04 01:48:41;;;;;;;18.23;12.60;;;;;;;13.29;81.55;99739.03;5069733;28;20029;-71
2021/09/04 01:51:07;;;;;;;16.45;12.48;;;;;;;13.28;80.83;99737.34;5069163;28;20052;-71
2021/09/04 01:53:32;;;;;;;12.60;11.30;;;;;;;13.27;81.26;99731.19;5069979;28;20059;-71
2021/09/04 01:55:58;;;;;;;21.85;13.80;;;;;;;13.26;81.08;99737.38;5067954;28;20551;-71
2021/09/04 01:58:23;;;;;;;19.35;12.77;;;;;;;13.28;81.14;99737.34;5069207;28;20448;-71
2021/09/04 02:00:48;;;;;;;14.52;11.50;;;;;;;13.26;80.55;99736.53;5069535;28;20066;-71
2021/09/04 02:03:14;;;;;;;17.25;12.85;;;;;;;13.24;80.87;99741.09;5068856;28;20062;-71
2021/09/04 02:05:39;;;;;;;15.73;12.23;;;;;;;13.25;80.68;99738.34;5068836;28;20401;-71
2021/09/04 02:08:05;;;;;;;20.80;14.70;;;;;;;13.27;80.99;99738.31;5069297;28;20072;-71
2021/09/04 02:10:30;;;;;;;19.38;13.55;;;;;;;13.20;81.50;99734.28;5071267;28;20032;-70
2021/09/04 02:12:55;;;;;;;17.33;13.73;;;;;;;13.13;81.23;99741.75;5079752;28;20040;-70
2021/09/04 02:15:21;;;;;;;17.98;14.20;;;;;;;13.13;81.22;99740.91;5080568;28;20074;-70
2021/09/04 02:17:46;;;;;;;22.70;15.30;;;;;;;13.11;80.94;99736.53;5085048;28;20041;-71
2021/09/04 02:20:12;;;;;;;23.08;13.85;;;;;;;13.09;81.27;99729.63;5084692;28;20051;-70
2021/09/04 02:22:37;;;;;;;16.27;13.65;;;;;;;13.06;81.66;99729.81;5085947;28;20056;-70
2021/09/04 02:25:04;;;;;;;21.08;13.95;;;;;;;13.03;81.59;99725.56;5081756;28;20523;-70
2021/09/04 02:27:30;;;;;;;17.20;12.45;;;;;;;13.08;81.40;99720.84;5079184;28;20030;-71
2021/09/04 02:29:55;;;;;;;14.43;12.35;;;;;;;13.13;81.43;99725.00;5072026;28;20123;-71
2021/09/04 02:32:21;;;;;;;20.33;15.40;;;;;;;13.15;81.08;99728.44;5071087;28;20060;-70
2021/09/04 02:34:46;;;;;;;16.67;13.85;;;;;;;13.14;81.30;99724.06;5071773;28;20044;-70
2021/09/04 02:37:11;;;;;;;17.52;14.88;;;;;;;13.13;80.46;99727.66;5070904;28;20052;-70
2021/09/04 02:39:37;;;;;;;21.38;15.80;;;;;;;13.06;81.36;99728.03;5076946;28;20043;-70
2021/09/04 02:42:02;;;;;;;18.35;15.98;;;;;;;13.06;81.60;99716.59;5069158;28;20120;-70
2021/09/04 02:44:28;;;;;;;21.23;15.13;;;;;;;13.07;80.97;99719.16;5069299;28;20085;-71
2021/09/04 02:46:54;;;;;;;16.95;14.13;;;;;;;13.02;81.10;99721.22;5068753;28;20075;-71
2021/09/04 02:49:19;;;;;;;19.85;14.93;;;;;;;12.96;80.78;99718.94;5068841;28;20102;-71
2021/09/04 02:51:45;;;;;;;23.17;14.48;;;;;;;12.92;80.92;99716.56;5068164;28;20039;-71
2021/09/04 02:54:10;;;;;;;18.75;14.88;;;;;;;12.89;81.40;99717.59;5068316;28;20460;-71
2021/09/04 02:56:36;;;;;;;20.05;15.43;;;;;;;12.87;81.23;99716.84;5067631;28;20041;-71
2021/09/04 02:59:01;;;;;;;17.90;13.90;;;;;;;12.87;81.82;99722.13;5068548;28;20110;-71
2021/09/04 03:01:27;;;;;;;15.63;12.40;;;;;;;12.89;81.14;99718.44;5066448;28;20128;-71
2021/09/04 03:03:52;;;;;;;24.05;15.73;;;;;;;12.93;81.21;99721.78;5068576;28;20041;-71
2021/09/04 03:06:18;;;;;;;23.40;16.20;;;;;;;12.92;81.30;99721.84;5067054;28;20036;-72
2021/09/04 03:08:43;;;;;;;16.80;12.65;;;;;;;12.93;82.01;99713.84;5067188;28;20028;-72
2021/09/04 03:11:08;;;;;;;18.73;13.95;;;;;;;12.97;80.41;99717.13;5066498;28;20035;-72
2021/09/04 03:13:34;;;;;;;22.55;16.75;;;;;;;12.89;80.49;99715.81;5067096;28;20048;-72
2021/09/04 03:15:59;;;;;;;24.33;16.73;;;;;;;12.84;80.72;99714.38;5067970;28;20048;-73
2021/09/04 03:18:24;;;;;;;21.00;16.15;;;;;;;12.81;81.77;99714.56;5069725;28;20047;-73
2021/09/04 03:20:50;;;;;;;23.95;19.10;;;;;;;12.76;81.49;99712.19;5067497;28;20064;-72
2021/09/04 03:23:15;;;;;;;16.90;13.02;;;;;;;12.78;80.73;99712.13;5067584;28;20036;-72
2021/09/04 03:25:40;;;;;;;19.23;15.35;;;;;;;12.79;81.24;99701.41;5068464;28;20111;-73
2021/09/04 03:28:08;;;;;;;19.13;15.73;;;;;;;12.80;81.10;99704.94;5068515;28;20048;-73
2021/09/04 03:30:33;;;;;;;20.38;16.80;;;;;;;12.73;81.34;99704.44;5068436;28;20033;-72
2021/09/04 03:32:59;;;;;;;23.38;15.93;;;;;;;12.71;81.06;99700.19;5071381;28;20844;-73
2021/09/04 03:35:24;;;;;;;32.45;18.77;;;;;;;12.66;81.69;99698.66;5070283;28;20044;-72
2021/09/04 03:37:49;;;;;;;23.83;17.25;;;;;;;12.60;81.12;99701.69;5071576;28;20037;-73
2021/09/04 03:40:15;;;;;;;25.55;18.80;;;;;;;12.56;81.68;99700.16;5071618;28;20037;-72
2021/09/04 03:42:40;;;;;;;23.95;17.65;;;;;;;12.55;81.95;99705.53;5069959;28;20032;-72
2021/09/04 03:45:06;;;;;;;22.60;17.77;;;;;;;12.58;81.72;99711.50;5072366;28;20328;-72
2021/09/04 03:47:32;;;;;;;25.75;18.23;;;;;;;12.58;81.67;99700.91;5071842;28;20075;-73
2021/09/04 03:49:57;;;;;;;24.25;17.23;;;;;;;12.59;81.20;99702.59;5071868;28;20045;-72
2021/09/04 03:52:22;;;;;;;26.92;17.55;;;;;;;12.60;81.50;99696.41;5069872;28;20405;-73
2021/09/04 03:54:48;;;;;;;24.02;18.30;;;;;;;12.61;81.17;99702.53;5071445;28;20041;-72
2021/09/04 03:57:13;;;;;;;23.52;16.75;;;;;;;12.65;81.28;99710.19;5071482;28;20036;-72
2021/09/04 03:59:38;;;;;;;22.33;15.80;;;;;;;12.66;82.08;99714.53;5071987;28;20378;-72
2021/09/04 04:02:04;;;;;;;23.85;19.05;;;;;;;12.69;81.13;99724.06;5070828;28;20443;-72
2021/09/04 04:04:29;;;;;;;28.13;18.27;;;;;;;12.66;80.78;99717.19;5071015;28;20481;-72
2021/09/04 04:06:54;;;;;;;29.08;19.55;;;;;;;12.60;81.02;99720.19;5071107;28;20066;-72
2021/09/04 04:09:20;;;;;;;26.45;20.15;;;;;;;12.57;81.50;99714.22;5070946;28;20441;-72
2021/09/04 04:11:45;;;;;;;23.20;18.20;;;;;;;12.55;81.52;99719.63;5070285;28;20127;-72
2021/09/04 04:14:11;;;;;;;28.60;20.75;;;;;;;12.56;81.90;99715.19;5071062;28;20489;-73
2021/09/04 04:16:36;;;;;;;24.50;18.63;;;;;;;12.54;81.64;99709.13;5070379;28;20044;-72
2021/09/04 04:19:02;;;;;;;30.33;23.05;;;;;;;12.50;81.51;99713.72;5071169;28;20036;-73
2021/09/04 04:21:27;;;;;;;25.83;19.23;;;;;;;12.51;81.47;99714.59;5069375;28;20040;-72
2021/09/04 04:23:52;;;;;;;33.65;21.00;;;;;;;12.56;81.16;99717.81;5071284;28;20106;-72
2021/09/04 04:26:18;;;;;;;21.67;17.17;;;;;;;12.57;81.68;99719.50;5071184;28;20489;-71
2021/09/04 04:28:43;;;;;;;33.45;20.02;;;;;;;12.53;81.55;99710.91;5071111;28;20120;-71
2021/09/04 04:31:09;;;;;;;21.33;16.27;;;;;;;12.49;81.48;99706.75;5070905;28;20060;-70
2021/09/04 04:33:34;;;;;;;33.38;20.92;;;;;;;12.49;81.53;99709.38;5071147;28;20489;-71
2021/09/04 04:35:59;;;;;;;28.95;20.48;;;;;;;12.46;81.26;99707.78;5070991;28;20401;-71
2021/09/04 04:38:25;;;;;;;31.30;21.35;;;;;;;12.44;81.71;99716.72;5071492;28;20040;-71
2021/09/04 04:40:50;;;;;;;29.55;18.40;;;;;;;12.41;81.86;99716.91;5071074;28;20505;-71
2021/09/04 04:43:16;;;;;;;27.75;17.85;;;;;;;12.42;81.52;99724.75;5070211;28;20035;-71
2021/09/04 04:45:42;;;;;;;21.70;16.92;;;;;;;12.44;81.31;99722.03;5070991;28;20032;-71
2021/09/04 04:48:07;;;;;;;33.38;17.95;;;;;;;12.45;80.77;99715.78;5070079;28;20482;-69
2021/09/04 04:50:32;;;;;;;25.67;18.30;;;;;;;12.45;81.27;99723.72;5069565;28;20052;-72
2021/09/04 04:52:58;;;;;;;21.17;15.13;;;;;;;12.43;81.17;99720.34;5070153;28;20038;-72
2021/09/04 04:55:23;;;;;;;21.30;15.80;;;;;;;12.44;80.56;99724.66;5068996;28;20029;-70
2021/09/04 04:57:48;;;;;;;23.90;17.15;;;;;;;12.41;80.79;99720.41;5071044;28;20060;-69
2021/09/04 05:00:14;;;;;;;24.75;16.50;;;;;;;12.42;81.72;99732.69;5070459;28;20028;-70
2021/09/04 05:02:40;;;;;;;19.80;16.02;;;;;;;12.40;81.53;99729.28;5069760;28;20040;-71
2021/09/04 05:05:06;;;;;;;20.10;15.57;;;;;;;12.40;81.51;99731.06;5070276;28;20032;-70
2021/09/04 05:07:32;;;;;;;20.40;15.57;;;;;;;12.39;80.83;99734.66;5070481;28;20025;-71
2021/09/04 05:09:57;;;;;;;19.10;14.98;;;;;;;12.38;81.50;99740.88;5070732;28;20040;-71
2021/09/04 05:12:23;;;;;;;21.70;16.98;;;;;;;12.38;81.23;99741.75;5069929;28;20032;-71
2021/09/04 05:14:48;;;;;;;22.60;17.15;;;;;;;12.36;81.00;99748.91;5048138;28;20029;-71
2021/09/04 05:17:13;;;;;;;25.90;19.20;;;;;;;12.31;81.25;99748.31;5050419;28;20109;-71
2021/09/04 05:19:38;;;;;;;25.25;19.05;;;;;;;12.27;81.26;99745.94;5075742;28;20377;-70
2021/09/04 05:22:04;;;;;;;24.95;17.90;;;;;;;12.22;81.51;99741.75;5069636;28;20501;-71
2021/09/04 05:24:29;;;;;;;25.95;19.60;;;;;;;12.21;81.86;99752.44;5065175;28;20037;-71
2021/09/04 05:26:54;;;;;;;26.95;18.30;;;;;;;12.16;81.88;99752.69;5069187;28;20083;-72
2021/09/04 05:29:20;;;;;;;23.05;17.58;;;;;;;12.17;81.52;99750.88;5074346;28;20036;-72
2021/09/04 05:31:45;;;;;;;23.48;18.38;;;;;;;12.16;81.81;99747.41;5084565;28;20564;-71
2021/09/04 05:34:11;;;;;;;23.55;17.05;;;;;;;12.19;82.16;99751.66;5074869;28;20043;-71
2021/09/04 05:36:36;;;;;;;24.90;18.20;;;;;;;12.22;81.78;99748.84;5072030;28;20502;-71
2021/09/04 05:39:02;;;;;;;23.30;15.85;;;;;;;12.29;82.04;99752.00;5072088;28;20040;-72
2021/09/04 05:41:27;;;;;;;24.33;17.35;;;;;;;12.36;81.25;99756.00;5068988;28;20043;-72
2021/09/04 05:43:52;;;;;;;21.15;17.80;;;;;;;12.42;81.62;99748.53;5070093;28;20079;-72
2021/09/04 05:46:18;;;;;;;23.38;16.92;;;;;;;12.47;81.55;99750.91;5068297;28;20020;-72
2021/09/04 05:48:43;;;;;;;23.65;16.63;;;;;;;12.50;81.44;99747.25;5068549;28;20031;-71
2021/09/04 05:51:08;;;;;;;21.88;16.70;;;;;;;12.51;81.65;99747.16;5069702;28;20025;-73
2021/09/04 05:53:34;;;;;;;25.70;18.30;;;;;;;12.56;81.50;99757.47;5067295;28;20039;-71
2021/09/04 05:55:59;;;;;;;24.45;16.08;;;;;;;12.60;81.96;99741.34;5069423;28;20127;-71
2021/09/04 05:58:25;;;;;;;21.95;16.90;;;;;;;12.67;81.38;99752.41;5069472;28;20115;-72
2021/09/04 06:00:52;;;;;;;21.63;15.48;;;;;;;12.80;81.78;99752.56;5068961;28;20068;-70
2021/09/04 06:03:17;;;;;;;26.23;18.27;;;;;;;12.85;80.85;99739.91;5068999;28;20611;-70
2021/09/04 06:05:43;;;;;;;20.90;16.00;;;;;;;12.91;81.19;99747.47;5068965;28;20096;-70
2021/09/04 06:08:08;;;;;;;27.00;18.02;;;;;;;12.98;81.21;99743.53;5069572;28;20048;-71
2021/09/04 06:10:33;;;;;;;20.58;17.80;;;;;;;13.06;81.16;99746.53;5069271;28;20478;-71
2021/09/04 06:12:59;;;;;;;19.83;16.60;;;;;;;13.15;80.47;99747.81;5068295;28;20037;-72
2021/09/04 06:15:24;;;;;;;22.52;16.73;;;;;;;13.25;80.91;99753.38;5068300;28;20037;-72
2021/09/04 06:17:49;;;;;;;31.88;19.92;;;;;;;13.32;81.50;99747.66;5069233;28;20043;-72
2021/09/04 06:20:15;;;;;;;25.00;18.27;;;;;;;13.40;81.18;99744.53;5067766;28;20064;-72
2021/09/04 06:22:40;;;;;;;26.75;18.83;;;;;;;13.48;80.86;99739.59;5068459;28;20059;-71
2021/09/04 06:25:06;;;;;;;28.13;18.52;;;;;;;13.58;81.48;99758.44;5069204;28;20492;-72
2021/09/04 06:27:32;;;;;;;21.17;15.95;;;;;;;13.68;80.68;99751.63;5069092;28;20033;-72
2021/09/04 06:29:57;;;;;;;25.88;16.75;;;;;;;13.78;80.20;99751.88;5067636;28;20534;-73
2021/09/04 06:32:22;;;;;;;22.73;14.70;;;;;;;13.90;80.00;99761.69;5068024;28;20025;-72
2021/09/04 06:34:48;;;;;;;21.50;16.27;;;;;;;14.01;80.24;99757.53;5068747;28;20393;-73
2021/09/04 06:37:13;;;;;;;19.70;16.30;;;;;;;14.15;80.25;99755.72;5068612;28;20044;-72
2021/09/04 06:39:38;;;;;;;21.33;18.50;;;;;;;14.29;79.56;99759.25;5068532;28;20131;-73
2021/09/04 06:42:04;;;;;;;23.02;16.80;;;;;;;14.40;79.15;99759.41;5067821;28;20388;-72
2021/09/04 06:44:29;;;;;;;24.65;18.48;;;;;;;14.56;79.20;99759.28;5068628;28;20396;-72
2021/09/04 06:46:55;;;;;;;28.50;20.88;;;;;;;14.73;78.75;99766.13;5068402;28;20036;-72
2021/09/04 06:49:20;;;;;;;26.98;20.38;;;;;;;14.91;78.63;99753.41;5068016;28;20033;-72
2021/09/04 06:51:45;;;;;;;27.80;18.23;;;;;;;15.06;78.13;99760.31;5068091;28;20036;-72
2021/09/04 06:54:11;;;;;;;28.83;22.80;;;;;;;15.21;77.75;99755.75;5069189;28;20029;-73
2021/09/04 06:56:36;;;;;;;35.58;24.58;;;;;;;15.25;77.69;99752.78;5068820;28;20040;-72
2021/09/04 06:59:02;;;;;;;28.77;22.90;;;;;;;15.34;77.68;99755.78;5068430;28;20199;-72
2021/09/04 07:01:27;;;;;;;33.65;25.02;;;;;;;15.49;78.29;99752.06;5067702;28;20076;-69
2021/09/04 07:03:52;;;;;;;35.22;26.85;;;;;;;15.63;77.68;99757.25;5067994;28;20592;-70
2021/09/04 07:06:17;;;;;;;38.22;28.90;;;;;;;15.70;77.10;99763.00;5068823;28;20032;-69
2021/09/04 07:08:43;;;;;;;38.03;28.08;;;;;;;15.77;77.34;99766.91;5072812;28;20040;-69
2021/09/04 07:11:09;;;;;;;31.55;25.50;;;;;;;15.94;77.33;99759.56;5075983;28;20649;-69
2021/09/04 07:13:34;;;;;;;42.15;28.40;;;;;;;16.01;76.54;99761.66;5071021;28;20033;-69
2021/09/04 07:16:00;;;;;;;44.53;25.90;;;;;;;16.04;76.85;99766.75;5072330;28;20048;-69
2021/09/04 07:18:25;;;;;;;39.00;28.23;;;;;;;16.13;76.68;99769.72;5072533;28;20055;-70
2021/09/04 07:20:51;;;;;;;40.20;27.75;;;;;;;16.18;76.15;99779.06;5073136;28;20520;-69
2021/09/04 07:23:16;;;;;;;39.50;28.65;;;;;;;16.26;76.36;99776.69;5070903;28;20040;-69
2021/09/04 07:25:42;;;;;;;42.30;27.52;;;;;;;16.30;75.99;99774.66;5072764;28;20549;-68
2021/09/04 07:28:08;;;;;;;42.40;30.38;;;;;;;16.29;76.17;99778.25;5071985;28;20040;-68
2021/09/04 07:30:34;;;;;;;48.22;28.95;;;;;;;16.28;76.79;99771.25;5072043;28;21688;-69
2021/09/04 07:33:00;;;;;;;39.65;32.45;;;;;;;16.29;77.24;99784.47;5071047;28;20064;-69
2021/09/04 07:35:26;;;;;;;42.25;31.38;;;;;;;16.39;76.39;99774.00;5070055;28;20063;-69
2021/09/04 07:37:51;;;;;;;37.65;27.27;;;;;;;16.65;77.40;99779.19;5071656;28;20087;-52
2021/09/04 07:40:17;;;;;;;37.85;29.13;;;;;;;16.93;75.05;99778.84;5055207;28;20064;-50
2021/09/04 07:42:42;;;;;;;35.53;28.20;;;;;;;17.05;74.25;99784.19;5058337;28;20071;-47
2021/09/04 07:45:08;;;;;;;41.60;31.10;;;;;;;17.01;74.03;99786.25;5065641;28;20821;-49
2021/09/04 07:47:34;;;;;;;53.15;34.13;;;;;;;17.02;74.68;99789.75;5065738;28;20573;-49
2021/09/04 07:49:59;;;;;;;50.60;35.65;;;;;;;16.87;74.16;99789.94;5065558;28;20033;-47
2021/09/04 07:52:25;;;;;;;45.35;35.58;;;;;;;16.81;74.98;99793.09;5064835;28;20759;-48
2021/09/04 07:54:50;;;;;;;51.97;36.78;;;;;;;16.79;74.93;99799.50;5065441;28;20048;-50
2021/09/04 07:57:15;;;;;;;49.20;36.03;;;;;;;17.00;74.79;99787.19;5064674;28;20041;-49
2021/09/04 08:00:02;;;;;;;49.05;36.40;;;;;;;17.55;72.38;99795.44;5067742;28;20043;-46
2021/09/04 08:02:28;;;;;;;55.38;40.28;;;;;;;17.51;72.34;99792.16;5055667;28;20040;-48
2021/09/04 08:04:53;;;;;;;56.55;38.78;;;;;;;17.45;72.89;99797.09;5065602;28;20040;-46
2021/09/04 08:07:18;;;;;;;51.50;38.70;;;;;;;17.72;71.84;99796.75;5065583;28;20032;-47
2021/09/04 08:09:44;;;;;;;60.28;41.00;;;;;;;17.92;71.39;99793.41;5064889;28;20745;-48
2021/09/04 08:12:09;;;;;;;62.25;42.40;;;;;;;18.07;70.77;99803.84;5065887;28;20043;-47
2021/09/04 08:14:34;;;;;;;62.85;43.80;;;;;;;18.17;70.18;99794.97;5066214;28;20036;-65
2021/09/04 08:17:00;;;;;;;68.75;44.70;;;;;;;17.98;70.75;99810.75;5064695;28;20044;-69
2021/09/04 08:19:25;;;;;;;67.65;45.50;;;;;;;17.72;71.72;99800.31;5066113;28;20150;-69
2021/09/04 08:21:51;;;;;;;74.38;51.30;;;;;;;17.54;72.09;99802.56;5070767;28;20465;-68
2021/09/04 08:24:16;;;;;;;69.47;46.97;;;;;;;17.43;73.27;99804.41;5071512;28;20036;-69
2021/09/04 08:26:43;;;;;;;65.55;45.80;;;;;;;17.32;73.08;99806.06;5067615;28;20086;-70
2021/09/04 08:29:10;;;;;;;58.65;42.22;;;;;;;17.32;73.42;99806.06;5070396;28;20489;-70
2021/09/04 08:31:35;;;;;;;68.75;50.10;;;;;;;17.21;73.79;99811.38;5072283;28;20128;-70
2021/09/04 08:34:01;;;;;;;67.03;47.20;;;;;;;17.24;73.59;99808.47;5072191;28;20107;-68
2021/09/04 08:36:26;;;;;;;70.28;50.58;;;;;;;17.12;73.91;99804.06;5071945;28;20111;-70
2021/09/04 08:38:51;;;;;;;78.88;52.83;;;;;;;16.95;74.90;99808.00;5072088;28;20040;-70
2021/09/04 08:41:17;;;;;;;92.68;55.17;;;;;;;16.78;75.31;99813.72;5070342;28;20036;-70
2021/09/04 08:43:42;;;;;;;83.35;55.35;;;;;;;16.56;76.24;99814.47;5071299;28;20037;-70
2021/09/04 08:46:11;;;;;;;90.57;60.50;;;;;;;16.39;76.87;99819.22;5070300;28;20032;-70
2021/09/04 08:48:37;;;;;;;85.82;56.22;;;;;;;16.38;77.59;99822.00;5070249;28;20032;-69
2021/09/04 08:51:02;;;;;;;83.30;53.28;;;;;;;16.40;77.31;99822.72;5070185;28;20039;-69
2021/09/04 08:53:28;;;;;;;74.30;52.45;;;;;;;16.46;76.43;99822.28;5070074;28;20043;-69
2021/09/04 08:55:53;;;;;;;76.75;50.25;;;;;;;16.49;76.71;99822.91;5070824;28;20043;-70
2021/09/04 08:58:18;;;;;;;89.95;55.47;;;;;;;16.47;76.60;99821.31;5070721;28;20401;-70
2021/09/04 09:00:44;;;;;;;84.40;56.08;;;;;;;16.37;77.14;99829.13;5070225;28;20401;-70
2021/09/04 09:03:25;;;;;;;75.43;51.08;;;;;;;16.40;77.25;99823.56;5067825;28;20037;-70
2021/09/04 09:05:51;;;;;;;73.15;51.80;;;;;;;16.41;77.09;99825.25;5070279;28;20048;-70
2021/09/04 09:08:22;;;;;;;85.57;55.72;;;;;;;16.32;77.37;99823.28;5070484;28;20033;-69
2021/09/04 09:10:50;;;;;;;74.40;50.45;;;;;;;16.44;77.24;99827.72;5071205;28;20041;-70
2021/09/04 09:13:20;;;;;;;81.65;52.45;;;;;;;16.44;77.61;99818.88;5069782;28;20024;-69
2021/09/04 09:15:46;;;;;;;84.20;53.78;;;;;;;16.48;77.17;99820.34;5070540;28;20124;-69
2021/09/04 09:18:16;;;;;;;89.72;58.15;;;;;;;16.40;77.87;99817.41;5052340;28;20032;-69
2021/09/04 09:20:46;;;;;;;75.22;53.13;;;;;;;16.40;77.37;99815.59;5070437;28;20051;-69
2021/09/04 09:23:20;;;;;;;79.75;54.55;;;;;;;16.55;77.50;99813.63;5067738;28;20036;-70
2021/09/04 09:25:47;;;;;;;76.95;51.53;;;;;;;16.76;76.84;99805.88;5090000;28;20115;-70
2021/09/04 09:28:14;;;;;;;85.40;55.40;;;;;;;17.14;75.43;99813.66;5089477;28;20036;-70
2021/09/04 09:30:53;;;;;;;80.55;52.28;;;;;;;17.38;74.75;99810.91;5089377;28;20032;-71
2021/09/04 09:33:20;;;;;;;77.70;53.30;;;;;;;17.73;73.15;99815.31;5089182;28;20028;-71
2021/09/04 09:35:48;;;;;;;67.93;45.67;;;;;;;18.08;72.09;99811.69;5090162;28;20123;-70
2021/09/04 09:38:16;;;;;;;72.43;46.95;;;;;;;18.81;69.81;99804.88;5090331;28;20044;-71
2021/09/04 09:40:42;;;;;;;83.80;55.30;;;;;;;19.43;67.05;99802.38;5087685;28;20066;-70
2021/09/04 09:43:23;;;;;;;70.05;51.97;;;;;;;20.34;64.29;99801.47;5051336;28;20082;-71
2021/09/04 09:45:56;;;;;;;69.72;51.67;;;;;;;21.18;61.58;99794.78;5081670;28;20443;-72
2021/09/04 09:48:27;;;;;;;60.33;45.20;;;;;;;22.16;58.23;99792.63;5088323;28;20101;-70
2021/09/04 09:50:55;;;;;;;52.40;41.35;;;;;;;23.02;55.99;99797.59;5088878;28;20396;-70
2021/09/04 09:53:22;;;;;;;55.63;44.10;;;;;;;23.63;53.74;99801.19;5088696;28;20089;-70
2021/09/04 09:55:50;;;;;;;66.80;47.90;;;;;;;23.86;52.68;99805.06;5089450;28;20040;-70
2021/09/04 09:58:17;;;;;;;58.30;46.78;;;;;;;24.31;52.39;99792.28;5090156;28;20115;-70
2021/09/04 10:00:43;;;;;;;66.85;53.45;;;;;;;24.61;50.92;99798.94;5051900;28;20078;-71
2021/09/04 10:03:11;;;;;;;60.85;48.63;;;;;;;24.57;50.91;99801.13;5065502;28;20032;-71
2021/09/04 10:05:37;;;;;;;72.70;55.38;;;;;;;24.39;50.72;99801.25;5046022;28;20568;-71
2021/09/04 10:08:04;;;;;;;69.55;49.38;;;;;;;24.35;50.94;99793.66;5101274;27;20063;-71
2021/09/04 10:10:35;;;;;;;69.20;54.67;;;;;;;24.11;50.99;99797.09;5098294;27;20044;-71
2021/09/04 10:13:01;;;;;;;78.88;56.60;;;;;;;23.91;51.65;99797.34;5073752;28;20044;-72
2021/09/04 10:15:29;;;;;;;63.05;48.72;;;;;;;24.56;50.15;99793.19;5095256;28;20040;-71
2021/09/04 10:17:57;;;;;;;65.20;53.38;;;;;;;24.57;49.72;99790.34;5061058;28;20044;-71
2021/09/04 10:20:28;;;;;;;60.20;49.42;;;;;;;24.53;49.95;99794.38;5062008;28;20211;-71
2021/09/04 10:23:30;;;;;;;66.53;51.83;;;;;;;24.64;49.91;99785.97;5062806;28;20060;-71
2021/09/04 10:26:28;;;;;;;63.15;51.45;;;;;;;25.30;48.67;99779.78;5062873;28;20473;-71
2021/09/04 10:29:06;;;;;;;67.93;54.03;;;;;;;25.37;48.20;99781.59;5053111;28;20048;-70
2021/09/04 10:32:01;;;;;;;71.20;52.05;;;;;;;25.57;47.50;99779.38;5062830;28;20480;-71
2021/09/04 10:34:31;;;;;;;65.97;52.60;;;;;;;25.45;47.72;99778.91;5064441;28;20186;-71
2021/09/04 10:37:02;;;;;;;71.85;53.53;;;;;;;25.33;48.04;99780.28;5063026;28;20047;-71
2021/09/04 10:39:47;;;;;;;83.53;55.53;;;;;;;25.18;48.54;99780.13;5064229;28;20028;-71
2021/09/04 10:42:19;;;;;;;60.15;44.38;;;;;;;24.80;49.17;99784.31;5066714;28;20056;-71
2021/09/04 10:44:46;;;;;;;66.10;52.58;;;;;;;24.49;49.48;99776.88;5069934;28;20423;-72
2021/09/04 10:47:13;;;;;;;54.70;43.65;;;;;;;24.18;51.01;99779.28;5073259;28;20115;-70
2021/09/04 10:49:45;;;;;;;69.47;54.28;;;;;;;23.76;52.16;99780.94;5074964;28;20058;-71
2021/09/04 10:52:11;;;;;;;62.90;50.92;;;;;;;23.71;52.74;99785.09;5071833;28;20037;-71
2021/09/04 10:55:00;;;;;;;80.80;53.38;;;;;;;23.52;52.98;99773.56;5075081;28;20040;-71
2021/09/04 10:57:26;;;;;;;66.95;51.90;;;;;;;23.10;54.32;99773.44;5052078;28;20056;-70
2021/09/04 11:00:16;;;;;;;57.53;44.78;;;;;;;23.08;54.64;99772.75;5055299;28;20036;-71
2021/09/04 11:03:01;;;;;;;60.10;47.63;;;;;;;22.80;55.14;99766.63;5062576;28;20033;-71
2021/09/04 11:05:36;;;;;;;63.92;47.95;;;;;;;22.44;56.42;99764.75;5059922;28;20033;-70
2021/09/04 11:08:04;;;;;;;69.25;51.45;;;;;;;22.29;57.24;99764.44;5063704;28;20086;-71
2021/09/04 11:10:31;;;;;;;71.90;52.28;;;;;;;22.18;57.72;99769.16;5060539;28;20562;-70
2021/09/04 11:13:11;;;;;;;74.85;50.80;;;;;;;22.07;58.19;99772.88;5056000;28;20090;-71
2021/09/04 11:15:37;;;;;;;62.88;47.75;;;;;;;22.08;58.52;99766.53;5059492;28;20043;-70